createdAt,value
2022-11-07T00:01:55.957Z,6.48
2022-11-07T00:04:22.496Z,6.40
2022-11-07T00:06:48.989Z,6.38
2022-11-07T00:09:15.640Z,6.42
2022-11-07T00:11:42.155Z,6.46
2022-11-07T00:14:08.650Z,6.54
2022-11-07T00:16:35.233Z,6.60
2022-11-07T00:19:02.222Z,6.90
2022-11-07T00:21:28.788Z,6.82
2022-11-07T00:23:55.441Z,6.73
2022-11-07T00:26:22.122Z,6.81
2022-11-07T00:28:49.037Z,6.83
2022-11-07T00:31:16.367Z,6.74
2022-11-07T00:33:44.236Z,6.74
2022-11-07T00:36:21.142Z,6.81
2022-11-07T00:38:48.007Z,6.84
2022-11-07T00:41:14.796Z,6.75
2022-11-07T00:43:41.484Z,6.68
2022-11-07T00:46:10.157Z,6.73
2022-11-07T00:48:37.266Z,6.69
2022-11-07T00:51:07.854Z,6.72
2022-11-07T00:53:34.757Z,6.73
2022-11-07T00:56:06.709Z,6.71
2022-11-07T00:58:33.938Z,6.76
2022-11-07T01:01:07.379Z,6.85
2022-11-07T01:03:52.577Z,6.87
2022-11-07T01:06:19.249Z,6.87
2022-11-07T01:08:45.771Z,6.74
2022-11-07T01:11:12.218Z,6.82
2022-11-07T01:13:38.793Z,6.88
2022-11-07T01:16:05.740Z,6.86
2022-11-07T01:18:32.318Z,6.77
2022-11-07T01:20:58.905Z,6.83
2022-11-07T01:23:25.413Z,6.83
2022-11-07T01:25:51.841Z,6.82
2022-11-07T01:28:18.368Z,6.80
2022-11-07T01:30:45.405Z,6.82
2022-11-07T01:33:13.083Z,6.82
2022-11-07T01:35:40.559Z,6.82
2022-11-07T01:38:07.570Z,6.80
2022-11-07T01:40:54.577Z,6.82
2022-11-07T01:43:21.377Z,6.75
2022-11-07T01:45:48.050Z,6.83
2022-11-07T01:48:14.603Z,6.78
2022-11-07T01:50:41.092Z,6.79
2022-11-07T01:53:07.678Z,6.77
2022-11-07T01:55:35.052Z,6.80
2022-11-07T01:58:05.841Z,6.78
2022-11-07T02:00:33.979Z,6.78
2022-11-07T02:03:09.601Z,6.68
2022-11-07T02:05:49.136Z,6.63
2022-11-07T02:08:16.600Z,6.60
2022-11-07T02:10:43.921Z,6.59
2022-11-07T02:13:17.814Z,6.55
2022-11-07T02:15:44.308Z,6.48
2022-11-07T02:18:11.100Z,6.35
2022-11-07T02:20:37.633Z,6.44
2022-11-07T02:23:06.917Z,6.42
2022-11-07T02:25:33.546Z,6.28
2022-11-07T02:28:04.031Z,6.41
2022-11-07T02:30:34.543Z,6.39
2022-11-07T02:33:02.325Z,6.34
2022-11-07T02:35:34.930Z,6.31
2022-11-07T02:38:05.636Z,6.21
2022-11-07T02:40:32.799Z,6.17
2022-11-07T02:43:00.559Z,6.07
2022-11-07T02:45:31.330Z,6.25
2022-11-07T02:47:58.081Z,6.24
2022-11-07T02:50:24.785Z,6.25
2022-11-07T02:52:51.321Z,6.22
2022-11-07T02:55:17.808Z,6.15
2022-11-07T02:57:45.042Z,6.01
2022-11-07T03:00:13.844Z,6.11
2022-11-07T03:02:47.059Z,6.15
2022-11-07T03:05:18.667Z,6.26
2022-11-07T03:07:46.601Z,6.33
2022-11-07T03:10:15.049Z,6.36
2022-11-07T03:12:41.662Z,6.34
2022-11-07T03:15:10.043Z,6.39
2022-11-07T03:17:36.602Z,6.43
2022-11-07T03:20:03.939Z,6.51
2022-11-07T03:22:30.479Z,6.52
2022-11-07T03:24:56.889Z,6.51
2022-11-07T03:27:23.429Z,6.44
2022-11-07T03:29:49.866Z,6.36
2022-11-07T03:32:16.519Z,6.24
2022-11-07T03:34:43.076Z,6.24
2022-11-07T03:37:09.524Z,6.33
2022-11-07T03:39:36.159Z,6.29
2022-11-07T03:42:02.689Z,6.25
2022-11-07T03:44:29.139Z,6.24
2022-11-07T03:46:55.748Z,6.19
2022-11-07T03:49:22.287Z,6.10
2022-11-07T03:51:48.762Z,6.06
2022-11-07T03:54:15.305Z,5.97
2022-11-07T03:56:41.735Z,5.91
2022-11-07T03:59:08.336Z,5.96
2022-11-07T04:01:35.099Z,5.89
2022-11-07T04:04:01.725Z,5.66
2022-11-07T04:06:28.152Z,5.65
2022-11-07T04:08:54.686Z,5.59
2022-11-07T04:11:39.899Z,5.53
2022-11-07T04:14:24.958Z,5.39
2022-11-07T04:17:10.269Z,5.33
2022-11-07T04:19:36.847Z,5.36
2022-11-07T04:22:03.453Z,5.25
2022-11-07T04:24:29.976Z,5.18
2022-11-07T04:27:15.167Z,5.18
2022-11-07T04:29:41.817Z,5.14
2022-11-07T04:32:08.346Z,5.12
2022-11-07T04:34:34.779Z,5.07
2022-11-07T04:37:01.421Z,5.02
2022-11-07T04:39:28.823Z,4.99
2022-11-07T04:41:56.502Z,5.04
2022-11-07T04:44:23.144Z,5.02
2022-11-07T04:46:49.770Z,5.03
2022-11-07T04:49:16.341Z,5.03
2022-11-07T04:51:43.495Z,5.01
2022-11-07T04:54:16.373Z,5.00
2022-11-07T04:56:42.943Z,4.95
2022-11-07T04:59:09.468Z,4.97
2022-11-07T05:01:35.994Z,4.94
2022-11-07T05:04:02.648Z,4.91
2022-11-07T05:06:29.574Z,4.74
2022-11-07T05:08:56.183Z,4.76
2022-11-07T05:11:22.785Z,4.85
2022-11-07T05:13:49.314Z,4.85
2022-11-07T05:16:19.312Z,4.85
2022-11-07T05:18:46.039Z,4.84
2022-11-07T05:21:12.801Z,4.91
2022-11-07T05:23:39.356Z,4.81
2022-11-07T05:26:05.816Z,4.80
2022-11-07T05:28:38.776Z,4.88
2022-11-07T05:31:07.548Z,4.90
2022-11-07T05:33:34.444Z,4.91
2022-11-07T05:36:14.703Z,4.89
2022-11-07T05:38:43.798Z,4.86
2022-11-07T05:41:10.827Z,4.71
2022-11-07T05:43:38.631Z,4.51
2022-11-07T05:46:05.656Z,4.42
2022-11-07T05:48:32.164Z,4.54
2022-11-07T05:50:58.965Z,4.65
2022-11-07T05:53:26.703Z,4.43
2022-11-07T05:55:53.283Z,4.42
2022-11-07T05:58:21.053Z,4.26
2022-11-07T06:00:48.122Z,4.24
2022-11-07T06:03:15.210Z,4.19
2022-11-07T06:05:43.388Z,4.32
2022-11-07T06:08:12.379Z,4.32
2022-11-07T06:10:40.572Z,4.24
2022-11-07T06:13:10.444Z,4.19
2022-11-07T06:15:37.818Z,4.26
2022-11-07T06:18:06.794Z,4.21
2022-11-07T06:20:35.021Z,4.47
2022-11-07T06:23:04.182Z,4.56
2022-11-07T06:25:31.411Z,4.48
2022-11-07T06:28:02.610Z,4.89
2022-11-07T06:30:29.701Z,4.74
2022-11-07T06:32:56.311Z,4.48
2022-11-07T06:35:22.785Z,4.88
2022-11-07T06:37:49.174Z,4.91
2022-11-07T06:40:15.839Z,5.06
2022-11-07T06:42:42.375Z,4.98
2022-11-07T06:45:08.936Z,5.16
2022-11-07T06:47:35.394Z,5.15
2022-11-07T06:50:01.777Z,5.26
2022-11-07T06:52:29.013Z,5.40
2022-11-07T06:54:55.717Z,5.46
2022-11-07T06:57:22.217Z,5.25
2022-11-07T06:59:51.776Z,5.40
2022-11-07T07:02:37.132Z,5.48
2022-11-07T07:05:05.574Z,5.45
2022-11-07T07:07:32.209Z,5.51
2022-11-07T07:09:58.668Z,5.52
2022-11-07T07:12:26.503Z,5.70
2022-11-07T07:14:52.965Z,5.59
2022-11-07T07:17:19.371Z,5.66
2022-11-07T07:19:45.822Z,5.49
2022-11-07T07:22:13.778Z,5.52
2022-11-07T07:24:40.387Z,5.52
2022-11-07T07:27:07.146Z,5.43
2022-11-07T07:29:33.751Z,5.55
2022-11-07T07:32:00.244Z,5.65
2022-11-07T07:34:26.687Z,5.63
2022-11-07T07:36:53.995Z,5.86
2022-11-07T07:39:20.464Z,5.69
2022-11-07T07:41:48.127Z,5.89
2022-11-07T07:44:19.882Z,5.75
2022-11-07T07:46:46.376Z,5.97
2022-11-07T07:49:12.871Z,6.16
2022-11-07T07:51:39.246Z,6.22
2022-11-07T07:54:05.865Z,6.33
2022-11-07T07:56:32.271Z,6.48
2022-11-07T07:58:58.728Z,6.55
2022-11-07T08:01:25.222Z,6.50
2022-11-07T08:04:01.503Z,6.59
2022-11-07T08:06:29.034Z,6.57
2022-11-07T08:08:56.268Z,6.81
2022-11-07T08:11:22.829Z,6.92
2022-11-07T08:13:49.209Z,7.07
2022-11-07T08:16:15.981Z,6.87
2022-11-07T08:18:42.540Z,6.89
2022-11-07T08:21:09.086Z,7.25
2022-11-07T08:23:35.885Z,7.29
2022-11-07T08:26:04.393Z,7.45
2022-11-07T08:28:33.619Z,7.62
2022-11-07T08:31:03.115Z,7.42
2022-11-07T08:33:30.382Z,7.30
2022-11-07T08:36:00.451Z,7.70
2022-11-07T08:38:28.611Z,7.50
2022-11-07T08:40:55.620Z,8.00
2022-11-07T08:43:22.234Z,8.07
2022-11-07T08:45:49.266Z,8.17
2022-11-07T08:48:17.455Z,8.24
2022-11-07T08:50:44.623Z,8.39
2022-11-07T08:53:11.448Z,8.48
2022-11-07T08:55:38.144Z,8.66
2022-11-07T08:58:06.988Z,8.75
2022-11-07T09:00:35.181Z,8.85
2022-11-07T09:05:50.465Z,9.22
2022-11-07T09:08:16.974Z,9.19
2022-11-07T09:10:43.582Z,9.42
2022-11-07T09:13:10.407Z,9.50
2022-11-07T09:15:36.878Z,9.67
2022-11-07T09:18:06.883Z,9.51
2022-11-07T09:20:34.331Z,9.91
2022-11-07T09:23:00.827Z,9.92
2022-11-07T09:25:27.388Z,10.08
2022-11-07T09:27:54.402Z,9.94
2022-11-07T09:30:21.682Z,10.07
2022-11-07T09:32:48.208Z,10.12
2022-11-07T09:35:14.757Z,10.32
2022-11-07T09:37:42.004Z,10.47
2022-11-07T09:40:22.279Z,10.39
2022-11-07T09:43:02.971Z,10.69
2022-11-07T09:45:31.043Z,10.83
2022-11-07T09:48:05.423Z,10.81
2022-11-07T09:50:40.774Z,10.85
2022-11-07T09:53:31.172Z,11.04
2022-11-07T09:56:00.954Z,11.31
2022-11-07T09:58:36.552Z,11.44
2022-11-07T10:01:08.548Z,11.60
2022-11-07T10:03:37.349Z,11.86
2022-11-07T10:06:24.834Z,12.02
2022-11-07T10:09:11.294Z,11.89
2022-11-07T10:12:02.403Z,11.74
2022-11-07T10:14:59.474Z,12.38
2022-11-07T10:17:54.140Z,12.31
2022-11-07T10:20:27.517Z,12.37
2022-11-07T10:23:04.407Z,12.16
2022-11-07T10:25:45.751Z,12.33
2022-11-07T10:28:18.069Z,12.39
2022-11-07T10:30:48.130Z,12.41
2022-11-07T10:33:36.459Z,12.50
2022-11-07T10:36:18.411Z,12.52
2022-11-07T10:38:44.927Z,12.14
2022-11-07T10:41:22.588Z,12.22
2022-11-07T10:43:53.892Z,12.32
2022-11-07T10:46:25.411Z,12.27
2022-11-07T10:48:57.050Z,12.22
2022-11-07T10:51:53.478Z,12.20
2022-11-07T10:54:25.722Z,12.58
2022-11-07T10:57:03.333Z,12.68
2022-11-07T10:59:36.149Z,12.60
2022-11-07T11:02:18.510Z,12.69
2022-11-07T11:04:55.163Z,13.01
2022-11-07T11:07:28.614Z,13.04
2022-11-07T11:09:57.819Z,12.97
2022-11-07T11:12:31.337Z,13.07
2022-11-07T11:32:30.801Z,12.56
2022-11-07T11:35:29.639Z,12.87
2022-11-07T11:38:01.084Z,12.87
2022-11-07T11:40:33.376Z,12.98
2022-11-07T11:43:11.174Z,13.28
2022-11-07T11:45:55.789Z,13.13
2022-11-07T11:48:33.365Z,13.09
2022-11-07T11:51:06.457Z,13.17
2022-11-07T11:53:33.196Z,13.11
2022-11-07T11:56:11.933Z,13.10
2022-11-07T11:59:12.105Z,12.96
2022-11-07T12:02:04.103Z,13.11
2022-11-07T12:04:49.757Z,13.07
2022-11-07T12:07:54.847Z,13.09
2022-11-07T12:10:36.520Z,12.97
2022-11-07T12:13:16.299Z,13.10
2022-11-07T12:15:52.553Z,13.14
2022-11-07T12:18:31.244Z,13.26
2022-11-07T12:21:02.683Z,12.95
2022-11-07T12:24:02.711Z,12.92
2022-11-07T12:26:56.306Z,13.02
2022-11-07T12:29:35.391Z,13.12
2022-11-07T12:32:19.171Z,12.71
2022-11-07T12:35:23.989Z,12.96
2022-11-07T12:38:21.012Z,13.07
2022-11-07T12:40:53.164Z,12.99
2022-11-07T12:43:22.374Z,12.85
2022-11-07T12:46:07.655Z,13.16
2022-11-07T12:49:03.339Z,13.08
2022-11-07T12:51:46.165Z,13.01
2022-11-07T12:54:29.075Z,13.01
2022-11-07T12:56:57.357Z,12.80
2022-11-07T12:59:27.359Z,12.76
2022-11-07T13:02:24.399Z,12.73
2022-11-07T13:05:03.510Z,12.72
2022-11-07T13:07:59.863Z,12.82
2022-11-07T13:10:57.747Z,12.75
2022-11-07T13:13:32.068Z,12.76
2022-11-07T13:16:21.060Z,12.90
2022-11-07T13:18:47.667Z,12.96
2022-11-07T13:21:14.126Z,12.77
2022-11-07T13:23:41.532Z,13.20
2022-11-07T13:26:26.351Z,12.80
2022-11-07T13:29:02.251Z,12.85
2022-11-07T13:31:40.308Z,12.86
2022-11-07T13:34:19.096Z,12.92
2022-11-07T13:36:48.699Z,12.97
2022-11-07T13:39:16.625Z,12.92
2022-11-07T13:41:46.228Z,12.81
2022-11-07T13:44:23.289Z,12.84
2022-11-07T13:46:52.156Z,12.94
2022-11-07T13:49:27.040Z,12.91
2022-11-07T13:51:58.474Z,12.99
2022-11-07T13:54:41.172Z,13.06
2022-11-07T13:57:24.401Z,12.93
2022-11-07T14:00:01.755Z,12.98
2022-11-07T14:02:30.685Z,12.84
2022-11-07T14:05:21.057Z,12.75
2022-11-07T14:08:14.029Z,12.85
2022-11-07T14:10:47.098Z,12.79
2022-11-07T14:13:25.222Z,12.79
2022-11-07T14:15:56.223Z,12.44
2022-11-07T14:18:26.739Z,12.64
2022-11-07T14:20:57.139Z,12.51
2022-11-07T14:23:27.152Z,12.57
2022-11-07T14:25:56.715Z,12.59
2022-11-07T14:28:23.496Z,12.44
2022-11-07T14:30:52.028Z,12.33
2022-11-07T14:33:21.629Z,12.35
2022-11-07T14:35:51.640Z,12.22
2022-11-07T14:38:22.496Z,12.39
2022-11-07T14:40:50.513Z,12.04
2022-11-07T14:43:21.430Z,11.99
2022-11-07T14:48:36.545Z,11.75
2022-11-07T14:51:03.851Z,11.60
2022-11-07T14:53:47.568Z,11.68
2022-11-07T14:56:18.043Z,11.62
2022-11-07T14:58:46.035Z,11.50
2022-11-07T15:01:23.520Z,11.66
2022-11-07T15:03:56.816Z,11.68
2022-11-07T15:06:33.291Z,11.77
2022-11-07T15:09:05.934Z,11.61
2022-11-07T15:11:38.094Z,11.71
2022-11-07T15:14:20.586Z,11.49
2022-11-07T15:16:49.412Z,11.34
2022-11-07T15:19:19.345Z,11.34
2022-11-07T15:21:55.182Z,11.30
2022-11-07T15:24:41.272Z,11.45
2022-11-07T15:27:13.849Z,11.35
2022-11-07T15:29:50.272Z,11.23
2022-11-07T15:32:19.281Z,10.93
2022-11-07T15:35:22.917Z,10.83
2022-11-07T15:37:35.163Z,10.84
2022-11-07T15:40:12.919Z,10.69
2022-11-07T15:42:39.435Z,10.64
2022-11-07T15:45:06.105Z,10.51
2022-11-07T15:47:33.662Z,10.37
2022-11-07T15:50:00.224Z,10.03
2022-11-07T15:52:26.667Z,10.17
2022-11-07T15:54:53.262Z,9.98
2022-11-07T15:57:19.796Z,9.97
2022-11-07T15:59:46.373Z,9.85
2022-11-07T16:02:15.465Z,9.77
2022-11-07T16:04:43.615Z,9.65
2022-11-07T16:07:18.741Z,9.58
2022-11-07T16:09:48.452Z,9.50
2022-11-07T16:12:18.921Z,9.48
2022-11-07T16:14:45.612Z,9.43
2022-11-07T16:17:14.699Z,9.41
2022-11-07T16:19:41.359Z,9.22
2022-11-07T16:22:11.278Z,9.19
2022-11-07T16:24:38.113Z,9.06
2022-11-07T16:27:05.307Z,9.11
2022-11-07T16:29:32.269Z,9.09
2022-11-07T16:31:59.011Z,9.06
2022-11-07T16:34:25.536Z,9.09
2022-11-07T16:36:52.065Z,8.99
2022-11-07T16:39:21.024Z,8.94
2022-11-07T16:41:48.777Z,8.71
2022-11-07T16:44:15.444Z,8.89
2022-11-07T16:46:42.884Z,8.82
2022-11-07T16:49:31.525Z,8.71
2022-11-07T16:51:58.703Z,8.71
2022-11-07T16:54:25.969Z,8.68
2022-11-07T16:56:53.115Z,8.55
2022-11-07T16:59:22.371Z,8.60
2022-11-07T17:01:51.069Z,8.55
2022-11-07T17:04:18.159Z,8.51
2022-11-07T17:06:47.484Z,8.36
2022-11-07T17:09:24.659Z,8.52
2022-11-07T17:11:51.157Z,8.59
2022-11-07T17:14:17.684Z,8.58
2022-11-07T17:16:46.239Z,8.61
2022-11-07T17:19:13.646Z,8.64
2022-11-07T17:21:46.073Z,8.70
2022-11-07T17:24:12.829Z,8.70
2022-11-07T17:26:39.334Z,8.64
2022-11-07T17:29:06.883Z,8.62
2022-11-07T17:31:33.527Z,8.60
2022-11-07T17:33:59.989Z,8.61
2022-11-07T17:36:35.268Z,8.46
2022-11-07T17:39:11.386Z,8.34
2022-11-07T17:41:39.632Z,8.44
2022-11-07T17:44:06.251Z,8.72
2022-11-07T17:46:33.326Z,8.67
2022-11-07T17:49:01.923Z,8.54
2022-11-07T17:51:28.908Z,8.40
2022-11-07T17:53:56.796Z,8.16
2022-11-07T17:56:25.987Z,8.23
2022-11-07T17:58:57.700Z,8.08
2022-11-07T18:01:26.847Z,8.07
2022-11-07T18:03:54.977Z,8.01
2022-11-07T18:06:23.440Z,7.90
2022-11-07T18:08:52.616Z,7.97
2022-11-07T18:11:21.063Z,7.91
2022-11-07T18:13:50.148Z,7.68
2022-11-07T18:16:23.621Z,7.82
2022-11-07T18:18:50.489Z,7.63
2022-11-07T18:21:17.335Z,7.67
2022-11-07T18:23:44.840Z,7.78
2022-11-07T18:26:17.598Z,7.78
2022-11-07T18:28:44.541Z,7.51
2022-11-07T18:31:16.288Z,7.70
2022-11-07T18:33:43.162Z,7.59
2022-11-07T18:36:13.701Z,7.52
2022-11-07T18:38:40.243Z,7.31
2022-11-07T18:41:07.867Z,7.41
2022-11-07T18:43:37.014Z,7.25
2022-11-07T18:46:07.403Z,7.32
2022-11-07T18:48:34.046Z,6.94
2022-11-07T18:51:00.584Z,7.23
2022-11-07T18:53:30.503Z,7.27
2022-11-07T18:56:03.452Z,7.21
2022-11-07T18:58:31.819Z,7.18
2022-11-07T19:01:09.071Z,7.22
2022-11-07T19:03:36.649Z,7.00
2022-11-07T19:06:07.421Z,7.18
2022-11-07T19:08:37.568Z,7.13
2022-11-07T19:11:07.737Z,7.12
2022-11-07T19:13:37.445Z,7.10
2022-11-07T19:16:05.803Z,7.04
2022-11-07T19:18:32.555Z,6.81
2022-11-07T19:20:59.473Z,7.03
2022-11-07T19:23:26.799Z,6.90
2022-11-07T19:25:54.084Z,6.95
2022-11-07T19:28:20.574Z,6.86
2022-11-07T19:30:46.981Z,6.86
2022-11-07T19:33:13.810Z,6.60
2022-11-07T19:35:40.721Z,6.60
2022-11-07T19:38:09.275Z,6.65
2022-11-07T19:40:38.718Z,6.54
2022-11-07T19:43:05.639Z,6.36
2022-11-07T19:45:32.211Z,6.57
2022-11-07T19:47:58.620Z,6.59
2022-11-07T19:50:25.090Z,5.91
2022-11-07T19:52:51.531Z,6.49
2022-11-07T19:55:18.128Z,6.44
2022-11-07T19:57:44.610Z,6.31
2022-11-07T20:00:11.368Z,6.38
2022-11-07T20:02:44.052Z,6.19
2022-11-07T20:05:11.176Z,6.07
2022-11-07T20:07:38.387Z,6.28
2022-11-07T20:10:05.636Z,6.14
2022-11-07T20:12:32.848Z,6.27
2022-11-07T20:14:59.981Z,6.10
2022-11-07T20:17:26.687Z,5.86
2022-11-07T20:19:53.055Z,6.23
2022-11-07T20:22:19.562Z,6.01
2022-11-07T20:24:45.913Z,6.12
2022-11-07T20:27:12.673Z,6.07
2022-11-07T20:29:39.139Z,5.92
2022-11-07T20:32:05.520Z,6.06
2022-11-07T20:34:32.030Z,6.02
2022-11-07T20:36:58.414Z,6.05
2022-11-07T20:39:24.957Z,5.97
2022-11-07T20:41:51.361Z,5.98
2022-11-07T20:44:17.799Z,5.96
2022-11-07T20:46:44.954Z,5.93
2022-11-07T20:49:14.336Z,5.94
2022-11-07T20:51:41.982Z,5.91
2022-11-07T20:54:13.061Z,5.92
2022-11-07T20:56:39.593Z,5.88
2022-11-07T20:59:06.290Z,5.80
2022-11-07T21:01:37.016Z,5.58
2022-11-07T21:04:09.530Z,5.56
2022-11-07T21:06:36.831Z,5.65
2022-11-07T21:09:04.202Z,5.70
2022-11-07T21:11:30.990Z,5.62
2022-11-07T21:13:58.142Z,5.62
2022-11-07T21:16:25.739Z,5.59
2022-11-07T21:18:53.463Z,5.58
2022-11-07T21:21:27.333Z,5.51
2022-11-07T21:23:55.184Z,5.45
2022-11-07T21:26:28.818Z,5.44
2022-11-07T21:28:56.514Z,5.46
2022-11-07T21:31:27.076Z,5.44
2022-11-07T21:33:53.926Z,5.14
2022-11-07T21:36:23.857Z,5.34
2022-11-07T21:38:50.327Z,5.17
2022-11-07T21:41:16.963Z,5.38
2022-11-07T21:43:43.881Z,5.28
2022-11-07T21:46:10.331Z,5.35
2022-11-07T21:48:37.777Z,5.32
2022-11-07T21:51:10.516Z,5.12
2022-11-07T21:53:38.187Z,5.31
2022-11-07T21:56:06.052Z,5.14
2022-11-07T21:58:32.553Z,5.48
2022-11-07T22:01:05.781Z,5.55
2022-11-07T22:04:03.769Z,5.44
2022-11-07T22:06:20.135Z,5.43
2022-11-07T22:08:48.717Z,5.45
2022-11-07T22:11:16.115Z,5.00
2022-11-07T22:13:42.614Z,5.21
2022-11-07T22:16:16.654Z,5.50
2022-11-07T22:18:43.256Z,5.41
2022-11-07T22:21:12.801Z,5.53
2022-11-07T22:23:40.241Z,5.58
2022-11-07T22:26:12.473Z,5.59
2022-11-07T22:28:42.944Z,5.39
2022-11-07T22:31:17.511Z,5.58
2022-11-07T22:33:44.395Z,5.34
2022-11-07T22:36:12.183Z,5.53
2022-11-07T22:38:39.341Z,5.26
2022-11-07T22:41:08.645Z,5.48
2022-11-07T22:43:35.162Z,5.21
2022-11-07T22:46:03.585Z,5.47
2022-11-07T22:48:30.531Z,5.35
2022-11-07T22:51:07.202Z,5.47
2022-11-07T22:53:34.466Z,5.29
2022-11-07T22:56:18.638Z,5.37
2022-11-07T22:58:46.821Z,5.48
2022-11-07T23:17:19.788Z,4.95
2022-11-07T23:19:46.227Z,4.76
2022-11-07T23:22:12.783Z,4.74
2022-11-07T23:24:39.381Z,4.90
2022-11-07T23:27:09.000Z,4.96
2022-11-07T23:29:35.596Z,4.91
2022-11-07T23:32:02.059Z,5.16
2022-11-07T23:34:29.135Z,5.20
2022-11-07T23:36:55.683Z,5.18
2022-11-07T23:39:22.770Z,5.11
2022-11-07T23:41:49.354Z,5.10
2022-11-07T23:44:15.985Z,5.13
2022-11-07T23:47:01.417Z,5.05
2022-11-07T23:49:46.269Z,5.02
2022-11-07T23:52:12.906Z,5.02
2022-11-07T23:54:58.250Z,4.80
2022-11-07T23:57:24.941Z,4.93
